< < Back
Terminal Aerodrome Forecast


Current Version              Previous Versions:   1  2  3  4  5  6  7  8  9  

Terminal Aerodrome Forecast

805
FTUS42 KFFC 271122
TAFCSG
TAF
KCSG 271122Z 2712/2812 31010KT P6SM OVC012
      TEMPO 2712/2714 OVC008
     FM271400 33011G21KT P6SM OVC015
     FM271700 33013G23KT P6SM SCT025 BKN050
     FM272100 32012G22KT P6SM SCT035
     FM280000 32010KT P6SM BKN050
     FM280400 32005KT P6SM SKC=

Latest METAR

695
SAUS70 KWBC 280000
MTRCSG
METAR KCSG 272351Z 33018G21KT 10SM BKN090 14/M03 A2990 RMK AO2 SLP124
T01391033 10172 20139 53021


USA.gov is the U.S. government's official web portal to all federal, state and local government web resources and services.